sensor_id;sensor_type;location;lat;lon;timestamp;pressure;altitude;pressure_sealevel;temperature;humidity
68117;BME280;54909;54.464;18.498;2023-12-04T00:01:48;101700;;;1.13;79
68117;BME280;54909;54.464;18.498;2023-12-04T00:04:50;101600;;;1.21;79
68117;BME280;54909;54.464;18.498;2023-12-04T00:07:51;101700;;;1.25;79
68117;BME280;54909;54.464;18.498;2023-12-04T00:10:58;101600;;;1.27;78
68117;BME280;54909;54.464;18.498;2023-12-04T00:13:59;101700;;;1.45;78
68117;BME280;54909;54.464;18.498;2023-12-04T00:17:01;101700;;;1.50;78
68117;BME280;54909;54.464;18.498;2023-12-04T00:20:08;101700;;;1.55;77
68117;BME280;54909;54.464;18.498;2023-12-04T00:23:10;101700;;;1.61;77
68117;BME280;54909;54.464;18.498;2023-12-04T00:26:12;101700;;;1.59;77
68117;BME280;54909;54.464;18.498;2023-12-04T00:29:18;101700;;;1.64;77
68117;BME280;54909;54.464;18.498;2023-12-04T00:32:20;101700;;;1.60;77
68117;BME280;54909;54.464;18.498;2023-12-04T00:35:21;101700;;;1.62;77
68117;BME280;54909;54.464;18.498;2023-12-04T00:38:28;101700;;;1.63;77
68117;BME280;54909;54.464;18.498;2023-12-04T00:41:29;101700;;;1.44;77
68117;BME280;54909;54.464;18.498;2023-12-04T00:44:31;101700;;;1.41;77
68117;BME280;54909;54.464;18.498;2023-12-04T00:47:38;101700;;;1.30;77
68117;BME280;54909;54.464;18.498;2023-12-04T00:54:11;101700;;;1.23;77
68117;BME280;54909;54.464;18.498;2023-12-04T00:57:33;101700;;;1.18;78
68117;BME280;54909;54.464;18.498;2023-12-04T01:00:53;101700;;;1.13;78
68117;BME280;54909;54.464;18.498;2023-12-04T01:04:11;101700;;;1.09;78
68117;BME280;54909;54.464;18.498;2023-12-04T01:07:24;101700;;;1.13;78
68117;BME280;54909;54.464;18.498;2023-12-04T01:10:25;101700;;;1.17;78
68117;BME280;54909;54.464;18.498;2023-12-04T01:13:26;101700;;;1.09;78
68117;BME280;54909;54.464;18.498;2023-12-04T01:16:30;101700;;;1.07;78
68117;BME280;54909;54.464;18.498;2023-12-04T01:19:32;101700;;;0.95;78
68117;BME280;54909;54.464;18.498;2023-12-04T01:22:33;101700;;;0.94;77
68117;BME280;54909;54.464;18.498;2023-12-04T01:25:40;101700;;;0.82;77
68117;BME280;54909;54.464;18.498;2023-12-04T01:28:41;101700;;;0.76;78
68117;BME280;54909;54.464;18.498;2023-12-04T01:31:42;101700;;;0.71;78
68117;BME280;54909;54.464;18.498;2023-12-04T01:34:49;101700;;;0.72;78
68117;BME280;54909;54.464;18.498;2023-12-04T01:37:50;101700;;;0.72;79
68117;BME280;54909;54.464;18.498;2023-12-04T01:40:52;101700;;;0.76;79
68117;BME280;54909;54.464;18.498;2023-12-04T01:43:59;101700;;;0.77;78
68117;BME280;54909;54.464;18.498;2023-12-04T01:47:01;101700;;;0.76;76
68117;BME280;54909;54.464;18.498;2023-12-04T01:50:03;101700;;;0.78;78
68117;BME280;54909;54.464;18.498;2023-12-04T01:53:09;101700;;;0.77;78
68117;BME280;54909;54.464;18.498;2023-12-04T01:56:11;101700;;;0.85;77
68117;BME280;54909;54.464;18.498;2023-12-04T01:59:13;101700;;;0.81;77
68117;BME280;54909;54.464;18.498;2023-12-04T02:02:19;101700;;;0.81;77
68117;BME280;54909;54.464;18.498;2023-12-04T02:05:22;101700;;;0.66;77
68117;BME280;54909;54.464;18.498;2023-12-04T02:08:25;101700;;;0.66;78
68117;BME280;54909;54.464;18.498;2023-12-04T02:11:28;101700;;;0.67;77
68117;BME280;54909;54.464;18.498;2023-12-04T02:14:29;101700;;;0.59;78
68117;BME280;54909;54.464;18.498;2023-12-04T02:17:32;101700;;;0.63;77
68117;BME280;54909;54.464;18.498;2023-12-04T02:20:37;101700;;;0.59;77
68117;BME280;54909;54.464;18.498;2023-12-04T02:23:39;101700;;;0.67;76
68117;BME280;54909;54.464;18.498;2023-12-04T02:26:49;101700;;;0.58;76
68117;BME280;54909;54.464;18.498;2023-12-04T02:29:53;101700;;;0.57;77
68117;BME280;54909;54.464;18.498;2023-12-04T02:32:58;101700;;;0.54;77
68117;BME280;54909;54.464;18.498;2023-12-04T02:36:02;101700;;;0.59;77
68117;BME280;54909;54.464;18.498;2023-12-04T02:39:05;101700;;;0.66;77
68117;BME280;54909;54.464;18.498;2023-12-04T02:42:07;101700;;;0.73;76
68117;BME280;54909;54.464;18.498;2023-12-04T02:45:08;101700;;;0.70;76
68117;BME280;54909;54.464;18.498;2023-12-04T02:48:10;101700;;;0.69;76
68117;BME280;54909;54.464;18.498;2023-12-04T02:51:11;101700;;;0.73;76
68117;BME280;54909;54.464;18.498;2023-12-04T02:54:12;101700;;;0.58;76
68117;BME280;54909;54.464;18.498;2023-12-04T02:57:17;101700;;;0.58;76
68117;BME280;54909;54.464;18.498;2023-12-04T03:00:18;101700;;;0.51;75
68117;BME280;54909;54.464;18.498;2023-12-04T03:03:20;101700;;;0.44;75
68117;BME280;54909;54.464;18.498;2023-12-04T03:06:26;101700;;;0.30;75
68117;BME280;54909;54.464;18.498;2023-12-04T03:09:28;101700;;;0.17;75
68117;BME280;54909;54.464;18.498;2023-12-04T03:12:29;101700;;;0.10;74
68117;BME280;54909;54.464;18.498;2023-12-04T03:15:36;101700;;;-0.02;74
68117;BME280;54909;54.464;18.498;2023-12-04T03:18:37;101700;;;-0.09;75
68117;BME280;54909;54.464;18.498;2023-12-04T03:21:39;101700;;;-0.28;75
68117;BME280;54909;54.464;18.498;2023-12-04T03:24:46;101700;;;-0.33;76
68117;BME280;54909;54.464;18.498;2023-12-04T03:27:47;101700;;;-0.47;76
68117;BME280;54909;54.464;18.498;2023-12-04T03:30:48;101700;;;-0.51;76
68117;BME280;54909;54.464;18.498;2023-12-04T03:33:55;101700;;;-0.57;76
68117;BME280;54909;54.464;18.498;2023-12-04T03:36:57;101700;;;-0.70;77
68117;BME280;54909;54.464;18.498;2023-12-04T03:39:59;101700;;;-0.75;77
68117;BME280;54909;54.464;18.498;2023-12-04T03:43:05;101700;;;-0.77;76
68117;BME280;54909;54.464;18.498;2023-12-04T03:46:07;101700;;;-0.80;76
68117;BME280;54909;54.464;18.498;2023-12-04T03:49:08;101700;;;-0.84;76
68117;BME280;54909;54.464;18.498;2023-12-04T03:52:15;101700;;;-0.95;77
68117;BME280;54909;54.464;18.498;2023-12-04T03:55:16;101700;;;-0.93;77
68117;BME280;54909;54.464;18.498;2023-12-04T03:58:20;101700;;;-0.87;76
68117;BME280;54909;54.464;18.498;2023-12-04T04:01:25;101700;;;-0.92;76
68117;BME280;54909;54.464;18.498;2023-12-04T04:04:26;101700;;;-0.98;76
68117;BME280;54909;54.464;18.498;2023-12-04T04:07:28;101700;;;-1.03;76
68117;BME280;54909;54.464;18.498;2023-12-04T04:10:35;101700;;;-1.07;76
68117;BME280;54909;54.464;18.498;2023-12-04T04:13:36;101700;;;-1.06;76
68117;BME280;54909;54.464;18.498;2023-12-04T04:16:37;101700;;;-1.23;76
68117;BME280;54909;54.464;18.498;2023-12-04T04:19:44;101700;;;-1.28;77
68117;BME280;54909;54.464;18.498;2023-12-04T04:22:48;101700;;;-1.26;77
68117;BME280;54909;54.464;18.498;2023-12-04T04:25:49;101700;;;-1.25;77
68117;BME280;54909;54.464;18.498;2023-12-04T04:28:54;101700;;;-1.31;77
68117;BME280;54909;54.464;18.498;2023-12-04T04:31:55;101700;;;-1.24;78
68117;BME280;54909;54.464;18.498;2023-12-04T04:34:57;101700;;;-1.23;78
68117;BME280;54909;54.464;18.498;2023-12-04T04:38:04;101700;;;-1.19;78
68117;BME280;54909;54.464;18.498;2023-12-04T04:41:06;101700;;;-1.34;78
68117;BME280;54909;54.464;18.498;2023-12-04T04:44:07;101700;;;-1.32;78
68117;BME280;54909;54.464;18.498;2023-12-04T04:47:15;101700;;;-1.35;79
68117;BME280;54909;54.464;18.498;2023-12-04T04:50:17;101700;;;-1.34;77
68117;BME280;54909;54.464;18.498;2023-12-04T04:53:18;101700;;;-1.36;77
68117;BME280;54909;54.464;18.498;2023-12-04T04:56:25;101700;;;-1.53;78
68117;BME280;54909;54.464;18.498;2023-12-04T04:59:26;101700;;;-1.55;78
68117;BME280;54909;54.464;18.498;2023-12-04T05:02:32;101700;;;-1.57;78
68117;BME280;54909;54.464;18.498;2023-12-04T05:05:36;101700;;;-1.60;78
68117;BME280;54909;54.464;18.498;2023-12-04T05:08:37;101700;;;-1.59;78
68117;BME280;54909;54.464;18.498;2023-12-04T05:11:39;101700;;;-1.53;78
68117;BME280;54909;54.464;18.498;2023-12-04T05:14:47;101700;;;-1.54;78
68117;BME280;54909;54.464;18.498;2023-12-04T05:17:48;101700;;;-1.49;78
68117;BME280;54909;54.464;18.498;2023-12-04T05:20:50;101700;;;-1.38;78
68117;BME280;54909;54.464;18.498;2023-12-04T05:23:58;101700;;;-1.26;78
68117;BME280;54909;54.464;18.498;2023-12-04T05:26:59;101700;;;-1.26;78
68117;BME280;54909;54.464;18.498;2023-12-04T05:30:00;101700;;;-1.11;77
68117;BME280;54909;54.464;18.498;2023-12-04T05:33:09;101700;;;-0.95;77
68117;BME280;54909;54.464;18.498;2023-12-04T05:36:11;101700;;;-0.86;77
68117;BME280;54909;54.464;18.498;2023-12-04T05:39:12;101700;;;-0.76;77
68117;BME280;54909;54.464;18.498;2023-12-04T05:42:20;101700;;;-0.72;77
68117;BME280;54909;54.464;18.498;2023-12-04T05:45:21;101700;;;-0.66;77
68117;BME280;54909;54.464;18.498;2023-12-04T05:48:23;101700;;;-0.61;77
68117;BME280;54909;54.464;18.498;2023-12-04T05:51:32;101700;;;-0.47;77
68117;BME280;54909;54.464;18.498;2023-12-04T05:54:34;101700;;;-0.49;76
68117;BME280;54909;54.464;18.498;2023-12-04T05:57:35;101700;;;-0.51;76
68117;BME280;54909;54.464;18.498;2023-12-04T06:00:43;101700;;;-0.56;76
68117;BME280;54909;54.464;18.498;2023-12-04T06:03:44;101700;;;-0.72;76
68117;BME280;54909;54.464;18.498;2023-12-04T06:06:45;101700;;;-0.77;76
68117;BME280;54909;54.464;18.498;2023-12-04T06:09:54;101700;;;-0.88;77
68117;BME280;54909;54.464;18.498;2023-12-04T06:12:56;101700;;;-0.92;77
68117;BME280;54909;54.464;18.498;2023-12-04T06:15:57;101700;;;-0.98;77
68117;BME280;54909;54.464;18.498;2023-12-04T06:19:06;101700;;;-1.10;76
68117;BME280;54909;54.464;18.498;2023-12-04T06:22:08;101700;;;-1.11;76
68117;BME280;54909;54.464;18.498;2023-12-04T06:25:11;101700;;;-1.35;76
68117;BME280;54909;54.464;18.498;2023-12-04T06:28:20;101700;;;-1.42;76
68117;BME280;54909;54.464;18.498;2023-12-04T06:31:22;101700;;;-1.34;76
68117;BME280;54909;54.464;18.498;2023-12-04T06:34:24;101700;;;-1.48;77
68117;BME280;54909;54.464;18.498;2023-12-04T06:37:31;101700;;;-1.54;77
68117;BME280;54909;54.464;18.498;2023-12-04T06:40:34;101700;;;-1.55;77
68117;BME280;54909;54.464;18.498;2023-12-04T06:43:37;101700;;;-1.47;76
68117;BME280;54909;54.464;18.498;2023-12-04T06:46:46;101700;;;-1.61;76
68117;BME280;54909;54.464;18.498;2023-12-04T06:49:52;101700;;;-1.80;76
68117;BME280;54909;54.464;18.498;2023-12-04T06:52:54;101700;;;-1.83;77
68117;BME280;54909;54.464;18.498;2023-12-04T06:55:56;101700;;;-1.86;77
68117;BME280;54909;54.464;18.498;2023-12-04T06:58:57;101700;;;-1.92;78
68117;BME280;54909;54.464;18.498;2023-12-04T07:01:58;101700;;;-1.99;78
68117;BME280;54909;54.464;18.498;2023-12-04T07:05:08;101700;;;-1.89;79
68117;BME280;54909;54.464;18.498;2023-12-04T07:08:09;101700;;;-1.81;79
68117;BME280;54909;54.464;18.498;2023-12-04T07:11:11;101700;;;-1.75;78
68117;BME280;54909;54.464;18.498;2023-12-04T07:14:20;101700;;;-1.67;79
68117;BME280;54909;54.464;18.498;2023-12-04T07:17:21;101700;;;-1.61;78
68117;BME280;54909;54.464;18.498;2023-12-04T07:20:23;101700;;;-1.46;79
68117;BME280;54909;54.464;18.498;2023-12-04T07:23:33;101700;;;-1.30;79
68117;BME280;54909;54.464;18.498;2023-12-04T07:26:35;101700;;;-1.16;79
68117;BME280;54909;54.464;18.498;2023-12-04T07:29:37;101700;;;-1.04;78
68117;BME280;54909;54.464;18.498;2023-12-04T07:32:45;101700;;;-0.95;78
68117;BME280;54909;54.464;18.498;2023-12-04T07:35:47;101700;;;-0.83;78
68117;BME280;54909;54.464;18.498;2023-12-04T07:38:48;101700;;;-0.80;78
68117;BME280;54909;54.464;18.498;2023-12-04T07:41:58;101700;;;-0.80;78
68117;BME280;54909;54.464;18.498;2023-12-04T07:44:59;101700;;;-0.77;78
68117;BME280;54909;54.464;18.498;2023-12-04T07:48:01;101700;;;-0.70;78
68117;BME280;54909;54.464;18.498;2023-12-04T07:51:11;101700;;;-0.70;77
68117;BME280;54909;54.464;18.498;2023-12-04T07:54:13;101700;;;-0.70;77
68117;BME280;54909;54.464;18.498;2023-12-04T07:57:14;101700;;;-0.63;77
68117;BME280;54909;54.464;18.498;2023-12-04T08:00:23;101700;;;-0.44;77
68117;BME280;54909;54.464;18.498;2023-12-04T08:03:27;101700;;;-0.39;77
68117;BME280;54909;54.464;18.498;2023-12-04T08:06:28;101700;;;-0.51;78
68117;BME280;54909;54.464;18.498;2023-12-04T08:09:35;101700;;;-0.37;77
68117;BME280;54909;54.464;18.498;2023-12-04T08:12:37;101700;;;-0.24;77
68117;BME280;54909;54.464;18.498;2023-12-04T08:15:39;101700;;;-0.23;77
68117;BME280;54909;54.464;18.498;2023-12-04T08:18:49;101700;;;-0.08;77
68117;BME280;54909;54.464;18.498;2023-12-04T08:21:50;101700;;;-0.07;77
68117;BME280;54909;54.464;18.498;2023-12-04T08:24:51;101700;;;-0.09;77
68117;BME280;54909;54.464;18.498;2023-12-04T08:28:00;101700;;;-0.06;78
68117;BME280;54909;54.464;18.498;2023-12-04T08:31:03;101700;;;0.11;78
68117;BME280;54909;54.464;18.498;2023-12-04T08:34:04;101700;;;0.14;78
68117;BME280;54909;54.464;18.498;2023-12-04T08:37:15;101700;;;0.31;77
68117;BME280;54909;54.464;18.498;2023-12-04T08:40:17;101700;;;0.34;78
68117;BME280;54909;54.464;18.498;2023-12-04T08:43:18;101700;;;0.35;78
68117;BME280;54909;54.464;18.498;2023-12-04T08:46:27;101700;;;0.49;78
68117;BME280;54909;54.464;18.498;2023-12-04T08:49:28;101700;;;0.69;77
68117;BME280;54909;54.464;18.498;2023-12-04T08:52:29;101700;;;0.75;77
68117;BME280;54909;54.464;18.498;2023-12-04T08:55:40;101800;;;0.83;76
68117;BME280;54909;54.464;18.498;2023-12-04T08:58:41;101800;;;0.95;77
68117;BME280;54909;54.464;18.498;2023-12-04T09:01:43;101800;;;1.02;76
68117;BME280;54909;54.464;18.498;2023-12-04T09:04:53;101800;;;1.19;77
68117;BME280;54909;54.464;18.498;2023-12-04T09:07:54;101800;;;1.31;77
68117;BME280;54909;54.464;18.498;2023-12-04T09:10:55;101800;;;1.43;76
68117;BME280;54909;54.464;18.498;2023-12-04T09:14:05;101800;;;1.57;76
68117;BME280;54909;54.464;18.498;2023-12-04T09:17:06;101800;;;1.62;76
68117;BME280;54909;54.464;18.498;2023-12-04T09:20:09;101800;;;1.70;76
68117;BME280;54909;54.464;18.498;2023-12-04T09:23:19;101800;;;1.92;76
68117;BME280;54909;54.464;18.498;2023-12-04T09:26:20;101800;;;1.92;76
68117;BME280;54909;54.464;18.498;2023-12-04T09:29:22;101800;;;1.95;76
68117;BME280;54909;54.464;18.498;2023-12-04T09:32:31;101800;;;1.98;76
68117;BME280;54909;54.464;18.498;2023-12-04T09:35:32;101800;;;2.06;76
68117;BME280;54909;54.464;18.498;2023-12-04T09:38:34;101800;;;2.11;76
68117;BME280;54909;54.464;18.498;2023-12-04T09:41:44;101800;;;2.04;76
68117;BME280;54909;54.464;18.498;2023-12-04T09:44:48;101800;;;1.99;76
68117;BME280;54909;54.464;18.498;2023-12-04T09:47:54;101800;;;2.04;76
68117;BME280;54909;54.464;18.498;2023-12-04T09:50:57;101800;;;2.01;76
68117;BME280;54909;54.464;18.498;2023-12-04T09:54:02;101800;;;2.03;76
68117;BME280;54909;54.464;18.498;2023-12-04T09:57:06;101800;;;2.02;76
68117;BME280;54909;54.464;18.498;2023-12-04T10:00:10;101800;;;2.02;76
68117;BME280;54909;54.464;18.498;2023-12-04T10:03:13;101800;;;2.02;76
68117;BME280;54909;54.464;18.498;2023-12-04T10:06:18;101800;;;1.98;76
68117;BME280;54909;54.464;18.498;2023-12-04T10:09:21;101800;;;1.97;76
68117;BME280;54909;54.464;18.498;2023-12-04T10:12:23;101800;;;2.00;76
68117;BME280;54909;54.464;18.498;2023-12-04T10:15:25;101800;;;2.06;75
68117;BME280;54909;54.464;18.498;2023-12-04T10:18:33;101800;;;2.07;75
68117;BME280;54909;54.464;18.498;2023-12-04T10:21:34;101700;;;2.16;76
68117;BME280;54909;54.464;18.498;2023-12-04T10:24:38;101800;;;2.28;76
68117;BME280;54909;54.464;18.498;2023-12-04T10:27:44;101700;;;2.31;75
68117;BME280;54909;54.464;18.498;2023-12-04T10:30:46;101800;;;2.31;75
68117;BME280;54909;54.464;18.498;2023-12-04T10:33:47;101800;;;2.41;75
68117;BME280;54909;54.464;18.498;2023-12-04T10:36:56;101800;;;2.43;75
68117;BME280;54909;54.464;18.498;2023-12-04T10:39:59;101800;;;2.43;75
68117;BME280;54909;54.464;18.498;2023-12-04T10:46:16;101800;;;2.27;75
68117;BME280;54909;54.464;18.498;2023-12-04T10:49:19;101800;;;2.24;75
68117;BME280;54909;54.464;18.498;2023-12-04T10:52:21;101800;;;2.31;75
68117;BME280;54909;54.464;18.498;2023-12-04T10:55:22;101800;;;2.31;75
68117;BME280;54909;54.464;18.498;2023-12-04T10:58:26;101700;;;2.26;75
68117;BME280;54909;54.464;18.498;2023-12-04T11:01:29;101700;;;2.28;75
68117;BME280;54909;54.464;18.498;2023-12-04T11:04:36;101800;;;2.30;74
68117;BME280;54909;54.464;18.498;2023-12-04T11:07:44;101800;;;2.29;74
68117;BME280;54909;54.464;18.498;2023-12-04T11:14:04;101800;;;2.29;74
68117;BME280;54909;54.464;18.498;2023-12-04T11:17:14;101800;;;2.29;74
68117;BME280;54909;54.464;18.498;2023-12-04T11:20:18;101800;;;2.26;74
68117;BME280;54909;54.464;18.498;2023-12-04T11:23:20;101800;;;2.30;74
68117;BME280;54909;54.464;18.498;2023-12-04T11:26:24;101800;;;2.29;74
68117;BME280;54909;54.464;18.498;2023-12-04T11:29:26;101800;;;2.35;74
68117;BME280;54909;54.464;18.498;2023-12-04T11:32:28;101800;;;2.33;74
68117;BME280;54909;54.464;18.498;2023-12-04T11:35:35;101800;;;2.34;74
68117;BME280;54909;54.464;18.498;2023-12-04T11:38:38;101800;;;2.38;74
68117;BME280;54909;54.464;18.498;2023-12-04T11:41:45;101800;;;2.17;74
68117;BME280;54909;54.464;18.498;2023-12-04T11:44:49;101800;;;2.28;74
68117;BME280;54909;54.464;18.498;2023-12-04T11:47:53;101800;;;2.35;74
68117;BME280;54909;54.464;18.498;2023-12-04T11:50:56;101800;;;2.55;74
68117;BME280;54909;54.464;18.498;2023-12-04T11:54:00;101800;;;2.71;73
68117;BME280;54909;54.464;18.498;2023-12-04T12:00:22;101800;;;2.92;72
68117;BME280;54909;54.464;18.498;2023-12-04T12:03:25;101800;;;2.94;72
68117;BME280;54909;54.464;18.498;2023-12-04T12:06:27;101800;;;3.05;71
68117;BME280;54909;54.464;18.498;2023-12-04T12:09:29;101800;;;3.02;71
68117;BME280;54909;54.464;18.498;2023-12-04T12:12:31;101800;;;3.04;71
68117;BME280;54909;54.464;18.498;2023-12-04T12:15:34;101800;;;3.08;71
68117;BME280;54909;54.464;18.498;2023-12-04T12:18:36;101800;;;3.15;70
68117;BME280;54909;54.464;18.498;2023-12-04T12:21:38;101800;;;3.19;70
68117;BME280;54909;54.464;18.498;2023-12-04T12:24:39;101800;;;3.13;70
68117;BME280;54909;54.464;18.498;2023-12-04T12:27:41;101800;;;3.29;70
68117;BME280;54909;54.464;18.498;2023-12-04T12:30:47;101700;;;3.43;70
68117;BME280;54909;54.464;18.498;2023-12-04T12:33:49;101700;;;3.64;70
68117;BME280;54909;54.464;18.498;2023-12-04T12:36:50;101700;;;3.80;69
68117;BME280;54909;54.464;18.498;2023-12-04T12:40:00;101700;;;4.03;69
68117;BME280;54909;54.464;18.498;2023-12-04T12:43:08;101700;;;4.21;67
68117;BME280;54909;54.464;18.498;2023-12-04T12:46:10;101700;;;4.27;68
68117;BME280;54909;54.464;18.498;2023-12-04T12:49:17;101700;;;4.41;68
68117;BME280;54909;54.464;18.498;2023-12-04T12:52:19;101700;;;4.56;66
68117;BME280;54909;54.464;18.498;2023-12-04T12:55:23;101800;;;4.71;67
68117;BME280;54909;54.464;18.498;2023-12-04T12:58:26;101800;;;4.93;66
68117;BME280;54909;54.464;18.498;2023-12-04T13:01:31;101800;;;4.94;66
68117;BME280;54909;54.464;18.498;2023-12-04T13:04:41;101800;;;5.07;65
68117;BME280;54909;54.464;18.498;2023-12-04T13:07:43;101800;;;5.19;65
68117;BME280;54909;54.464;18.498;2023-12-04T13:10:44;101800;;;5.26;64
68117;BME280;54909;54.464;18.498;2023-12-04T13:13:46;101800;;;5.34;65
68117;BME280;54909;54.464;18.498;2023-12-04T13:16:51;101700;;;5.44;64
68117;BME280;54909;54.464;18.498;2023-12-04T13:19:56;101700;;;5.60;63
68117;BME280;54909;54.464;18.498;2023-12-04T13:22:57;101700;;;5.64;62
68117;BME280;54909;54.464;18.498;2023-12-04T13:26:05;101700;;;5.43;62
68117;BME280;54909;54.464;18.498;2023-12-04T13:29:07;101700;;;5.09;62
68117;BME280;54909;54.464;18.498;2023-12-04T13:32:08;101700;;;4.72;64
68117;BME280;54909;54.464;18.498;2023-12-04T13:35:17;101700;;;4.61;64
68117;BME280;54909;54.464;18.498;2023-12-04T13:38:19;101700;;;4.47;65
68117;BME280;54909;54.464;18.498;2023-12-04T13:41:20;101700;;;4.25;65
68117;BME280;54909;54.464;18.498;2023-12-04T13:44:33;101700;;;3.99;66
68117;BME280;54909;54.464;18.498;2023-12-04T13:47:35;101700;;;3.58;67
68117;BME280;54909;54.464;18.498;2023-12-04T13:50:37;101700;;;3.24;68
68117;BME280;54909;54.464;18.498;2023-12-04T13:53:41;101700;;;3.18;69
68117;BME280;54909;54.464;18.498;2023-12-04T13:56:48;101700;;;3.05;69
68117;BME280;54909;54.464;18.498;2023-12-04T13:59:54;101700;;;2.88;70
68117;BME280;54909;54.464;18.498;2023-12-04T14:02:58;101700;;;2.61;71
68117;BME280;54909;54.464;18.498;2023-12-04T14:06:08;101700;;;2.50;71
68117;BME280;54909;54.464;18.498;2023-12-04T14:09:10;101700;;;2.42;71
68117;BME280;54909;54.464;18.498;2023-12-04T14:12:15;101700;;;2.27;72
68117;BME280;54909;54.464;18.498;2023-12-04T14:15:17;101700;;;2.06;73
68117;BME280;54909;54.464;18.498;2023-12-04T14:18:18;101700;;;1.91;73
68117;BME280;54909;54.464;18.498;2023-12-04T14:21:20;101700;;;1.86;74
68117;BME280;54909;54.464;18.498;2023-12-04T14:24:21;101700;;;1.91;73
68117;BME280;54909;54.464;18.498;2023-12-04T14:27:22;101700;;;1.74;74
68117;BME280;54909;54.464;18.498;2023-12-04T14:30:31;101700;;;1.61;75
68117;BME280;54909;54.464;18.498;2023-12-04T14:33:33;101700;;;1.50;75
68117;BME280;54909;54.464;18.498;2023-12-04T14:36:34;101700;;;1.41;75
68117;BME280;54909;54.464;18.498;2023-12-04T14:39:44;101700;;;1.33;76
68117;BME280;54909;54.464;18.498;2023-12-04T14:42:46;101700;;;1.29;76
68117;BME280;54909;54.464;18.498;2023-12-04T14:45:48;101700;;;1.13;76
68117;BME280;54909;54.464;18.498;2023-12-04T14:48:57;101700;;;0.97;77
68117;BME280;54909;54.464;18.498;2023-12-04T14:51:58;101700;;;0.84;77
68117;BME280;54909;54.464;18.498;2023-12-04T14:55:05;101700;;;0.81;78
68117;BME280;54909;54.464;18.498;2023-12-04T14:58:20;101700;;;0.74;78
68117;BME280;54909;54.464;18.498;2023-12-04T15:01:38;101700;;;0.65;78
68117;BME280;54909;54.464;18.498;2023-12-04T15:04:50;101700;;;0.59;78
68117;BME280;54909;54.464;18.498;2023-12-04T15:08:03;101700;;;0.59;78
68117;BME280;54909;54.464;18.498;2023-12-04T15:11:15;101700;;;0.55;79
68117;BME280;54909;54.464;18.498;2023-12-04T15:14:27;101700;;;0.64;79
68117;BME280;54909;54.464;18.498;2023-12-04T15:17:41;101700;;;0.60;79
68117;BME280;54909;54.464;18.498;2023-12-04T15:20:58;101700;;;0.59;79
68117;BME280;54909;54.464;18.498;2023-12-04T15:23:59;101700;;;0.62;79
68117;BME280;54909;54.464;18.498;2023-12-04T15:27:01;101700;;;0.65;78
68117;BME280;54909;54.464;18.498;2023-12-04T15:30:04;101700;;;0.58;78
68117;BME280;54909;54.464;18.498;2023-12-04T15:33:09;101700;;;0.49;79
68117;BME280;54909;54.464;18.498;2023-12-04T15:36:10;101700;;;0.45;78
68117;BME280;54909;54.464;18.498;2023-12-04T15:39:12;101700;;;0.39;79
68117;BME280;54909;54.464;18.498;2023-12-04T15:42:21;101700;;;0.32;79
68117;BME280;54909;54.464;18.498;2023-12-04T15:45:23;101700;;;0.29;79
68117;BME280;54909;54.464;18.498;2023-12-04T15:48:24;101700;;;0.30;79
68117;BME280;54909;54.464;18.498;2023-12-04T15:51:34;101700;;;0.26;79
68117;BME280;54909;54.464;18.498;2023-12-04T15:54:35;101700;;;0.31;79
68117;BME280;54909;54.464;18.498;2023-12-04T15:57:37;101700;;;0.23;79
68117;BME280;54909;54.464;18.498;2023-12-04T16:00:46;101700;;;0.12;79
68117;BME280;54909;54.464;18.498;2023-12-04T16:03:48;101700;;;0.11;80
68117;BME280;54909;54.464;18.498;2023-12-04T16:06:50;101700;;;0.20;80
68117;BME280;54909;54.464;18.498;2023-12-04T16:09:58;101700;;;0.13;80
68117;BME280;54909;54.464;18.498;2023-12-04T16:12:59;101700;;;0.19;79
68117;BME280;54909;54.464;18.498;2023-12-04T16:16:01;101700;;;0.28;79
68117;BME280;54909;54.464;18.498;2023-12-04T16:19:10;101700;;;0.39;79
68117;BME280;54909;54.464;18.498;2023-12-04T16:22:12;101700;;;0.54;79
68117;BME280;54909;54.464;18.498;2023-12-04T16:25:13;101700;;;0.56;79
68117;BME280;54909;54.464;18.498;2023-12-04T16:28:23;101700;;;0.70;78
68117;BME280;54909;54.464;18.498;2023-12-04T16:31:25;101800;;;0.76;78
68117;BME280;54909;54.464;18.498;2023-12-04T16:34:27;101700;;;0.83;78
68117;BME280;54909;54.464;18.498;2023-12-04T16:37:36;101800;;;0.84;78
68117;BME280;54909;54.464;18.498;2023-12-04T16:40:40;101800;;;0.68;78
68117;BME280;54909;54.464;18.498;2023-12-04T16:43:41;101800;;;0.67;78
68117;BME280;54909;54.464;18.498;2023-12-04T16:46:48;101800;;;0.68;78
68117;BME280;54909;54.464;18.498;2023-12-04T16:49:56;101800;;;0.73;78
68117;BME280;54909;54.464;18.498;2023-12-04T16:52:57;101800;;;0.73;78
68117;BME280;54909;54.464;18.498;2023-12-04T16:55:59;101800;;;0.66;78
68117;BME280;54909;54.464;18.498;2023-12-04T16:59:01;101800;;;0.71;78
68117;BME280;54909;54.464;18.498;2023-12-04T17:02:03;101800;;;0.56;78
68117;BME280;54909;54.464;18.498;2023-12-04T17:05:11;101800;;;0.49;79
68117;BME280;54909;54.464;18.498;2023-12-04T17:08:12;101800;;;0.55;79
68117;BME280;54909;54.464;18.498;2023-12-04T17:11:14;101800;;;0.53;78
68117;BME280;54909;54.464;18.498;2023-12-04T17:14:24;101800;;;0.58;78
68117;BME280;54909;54.464;18.498;2023-12-04T17:17:25;101800;;;0.53;78
68117;BME280;54909;54.464;18.498;2023-12-04T17:20:27;101800;;;0.52;78
68117;BME280;54909;54.464;18.498;2023-12-04T17:23:29;101800;;;0.45;79
68117;BME280;54909;54.464;18.498;2023-12-04T17:26:30;101800;;;0.52;78
68117;BME280;54909;54.464;18.498;2023-12-04T17:29:31;101800;;;0.50;78
68117;BME280;54909;54.464;18.498;2023-12-04T17:32:34;101800;;;0.56;78